Terminal Aerodrome Forecast
Issued by NWS

Home | Current Version | Previous Version | Text Only | Print | Product List | Glossary On
Versions: 1 2 3 4 5 6 7 8 9 10 11 12 13 14 15
000
FTUS43 KMQT 291700
TAFIWD
TAF
KIWD 291734Z 2918/3018 27007KT P6SM BKN060
      TEMPO 2919/2923 36007G20KT 6SM -SHRA BKN040
     FM300100 33005KT P6SM SCT060
     FM300700 00000KT 2SM BR SCT003
     FM301400 27005KT P6SM SCT120
      AMD NOT SKED=

USA.gov is the U.S. government's official web portal to all federal, state and local government web resources and services.